Time;durP1;ratioP1;P1;durP2;ratioP2;P2;SDS_P1;SDS_P2;PMS_P1;PMS_P2;Temp;Humidity;BMP_temperature;BMP_pressure;BME280_temperature;BME280_humidity;BME280_pressure;Samples;Min_cycle;Max_cycle;Signal;HPM_P1;HPM_P2
2023/11/26 00:00:47;;;;;;;3.83;1.90;;;;;;;;;;4435509;32;20072;-58
2023/11/26 00:03:14;;;;;;;0.30;0.30;;;;;;;;;;4433330;32;20085;-56
2023/11/26 00:05:40;;;;;;;0.30;0.30;;;;;;;;;;4437590;32;20595;-59
2023/11/26 00:08:06;;;;;;;0.30;0.30;;;;;;;;;;4434941;32;21086;-59
2023/11/26 00:10:32;;;;;;;0.80;0.80;;;;;;;;;;4417316;32;20155;-57
2023/11/26 00:12:58;;;;;;;0.40;0.40;;;;;;;;;;4433050;32;20090;-58
2023/11/26 00:15:23;;;;;;;0.40;0.40;;;;;;;;;;4439091;32;20462;-59
2023/11/26 00:17:50;;;;;;;0.40;0.40;;;;;;;;;;4441613;32;20403;-58
2023/11/26 00:20:16;;;;;;;10.60;2.58;;;;;;;;;;4420343;32;20077;-58
2023/11/26 00:22:42;;;;;;;0.30;0.30;;;;;;;;;;4433394;32;21419;-58
2023/11/26 00:25:08;;;;;;;0.40;0.40;;;;;;;;;;4429253;32;20057;-57
2023/11/26 00:27:34;;;;;;;0.62;0.62;;;;;;;;;;4433084;32;20516;-58
2023/11/26 00:30:00;;;;;;;0.85;0.52;;;;;;;;;;4416459;32;20147;-60
2023/11/26 00:32:26;;;;;;;1.10;0.45;;;;;;;;;;4434891;32;20537;-58
2023/11/26 00:34:52;;;;;;;0.30;0.30;;;;;;;;;;4438488;32;20529;-58
2023/11/26 00:37:18;;;;;;;0.32;0.32;;;;;;;;;;4435196;32;20084;-59
2023/11/26 00:39:44;;;;;;;0.30;0.30;;;;;;;;;;4435774;32;20084;-56
2023/11/26 00:42:10;;;;;;;0.30;0.30;;;;;;;;;;4435102;32;20492;-59
2023/11/26 00:44:36;;;;;;;0.30;0.30;;;;;;;;;;4437356;32;20437;-59
2023/11/26 00:47:02;;;;;;;0.50;0.50;;;;;;;;;;4436663;32;20073;-60
2023/11/26 00:49:28;;;;;;;0.30;0.30;;;;;;;;;;4436955;32;20081;-60
2023/11/26 00:51:54;;;;;;;0.40;0.40;;;;;;;;;;4437854;32;20073;-60
2023/11/26 00:54:20;;;;;;;0.40;0.40;;;;;;;;;;4437521;32;20073;-59
2023/11/26 00:56:46;;;;;;;0.30;0.30;;;;;;;;;;4438176;32;21074;-60
2023/11/26 00:59:12;;;;;;;0.30;0.30;;;;;;;;;;4434119;32;20064;-59
2023/11/26 01:01:38;;;;;;;1.75;0.93;;;;;;;;;;4432508;32;20172;-59
2023/11/26 01:04:04;;;;;;;0.40;0.40;;;;;;;;;;4441661;32;20524;-60
2023/11/26 01:06:31;;;;;;;0.30;0.30;;;;;;;;;;4441596;32;20438;-60
2023/11/26 01:08:56;;;;;;;0.28;0.28;;;;;;;;;;4440093;32;20072;-58
2023/11/26 01:11:22;;;;;;;0.30;0.30;;;;;;;;;;4436450;32;20069;-60
2023/11/26 01:13:48;;;;;;;0.30;0.30;;;;;;;;;;4438614;32;20050;-60
2023/11/26 01:16:14;;;;;;;0.30;0.30;;;;;;;;;;4428881;32;20138;-57
2023/11/26 01:18:40;;;;;;;0.30;0.30;;;;;;;;;;4434669;32;20060;-59
2023/11/26 01:21:07;;;;;;;0.30;0.30;;;;;;;;;;4432769;32;20764;-60
2023/11/26 01:23:33;;;;;;;0.32;0.32;;;;;;;;;;4436786;32;20148;-59
2023/11/26 01:25:59;;;;;;;0.30;0.30;;;;;;;;;;4436036;32;20121;-60
2023/11/26 01:28:25;;;;;;;0.30;0.30;;;;;;;;;;4436654;32;20065;-59
2023/11/26 01:30:51;;;;;;;0.40;0.40;;;;;;;;;;4434355;32;20557;-60
2023/11/26 01:33:19;;;;;;;0.30;0.30;;;;;;;;;;4435426;32;20085;-60
2023/11/26 01:35:45;;;;;;;0.30;0.30;;;;;;;;;;4433871;32;20086;-60
2023/11/26 01:38:11;;;;;;;0.30;0.30;;;;;;;;;;4440103;32;20061;-58
2023/11/26 01:40:37;;;;;;;0.30;0.30;;;;;;;;;;4436429;32;21194;-60
2023/11/26 01:43:03;;;;;;;0.40;0.40;;;;;;;;;;4439990;32;20065;-59
2023/11/26 01:45:29;;;;;;;0.30;0.30;;;;;;;;;;4422875;32;20061;-60
2023/11/26 01:47:56;;;;;;;0.37;0.37;;;;;;;;;;4438276;32;20384;-60
2023/11/26 01:50:24;;;;;;;0.35;0.35;;;;;;;;;;4435661;32;20137;-60
2023/11/26 01:52:50;;;;;;;1.17;1.08;;;;;;;;;;4436476;32;20065;-57
2023/11/26 01:55:18;;;;;;;0.30;0.30;;;;;;;;;;4439056;32;20111;-61
2023/11/26 01:57:44;;;;;;;0.30;0.30;;;;;;;;;;4439166;32;20575;-60
2023/11/26 02:02:36;;;;;;;0.30;0.30;;;;;;;;;;4439133;32;20042;-61
2023/11/26 02:05:02;;;;;;;0.40;0.40;;;;;;;;;;4437768;32;20046;-58
2023/11/26 02:07:28;;;;;;;0.30;0.30;;;;;;;;;;4438079;32;20539;-61
2023/11/26 02:09:54;;;;;;;0.40;0.40;;;;;;;;;;4434921;32;20541;-60
2023/11/26 02:12:20;;;;;;;2.60;1.77;;;;;;;;;;4433743;32;20061;-60
2023/11/26 02:14:48;;;;;;;0.30;0.30;;;;;;;;;;4439263;32;20097;-60
2023/11/26 02:17:15;;;;;;;0.30;0.30;;;;;;;;;;4438318;32;20602;-60
2023/11/26 02:19:41;;;;;;;0.30;0.30;;;;;;;;;;4441681;32;20069;-56
2023/11/26 02:22:08;;;;;;;0.40;0.40;;;;;;;;;;4420934;32;20062;-60
2023/11/26 02:24:43;;;;;;;0.40;0.40;;;;;;;;;;4435238;32;20077;-60
2023/11/26 02:27:09;;;;;;;0.40;0.40;;;;;;;;;;4437609;32;20420;-59
2023/11/26 02:29:36;;;;;;;0.40;0.40;;;;;;;;;;4435242;32;21174;-59
2023/11/26 02:32:02;;;;;;;0.30;0.30;;;;;;;;;;4437028;32;20451;-58
2023/11/26 02:34:27;;;;;;;0.32;0.32;;;;;;;;;;4435875;32;20098;-59
2023/11/26 02:36:53;;;;;;;0.40;0.40;;;;;;;;;;4441968;32;20109;-60
2023/11/26 02:39:19;;;;;;;0.30;0.30;;;;;;;;;;4437701;32;20089;-59
2023/11/26 02:41:46;;;;;;;0.30;0.30;;;;;;;;;;4434800;32;20164;-58
2023/11/26 02:44:12;;;;;;;0.30;0.30;;;;;;;;;;4439351;32;20595;-60
2023/11/26 02:46:37;;;;;;;0.30;0.30;;;;;;;;;;4435323;32;20100;-59
2023/11/26 02:49:04;;;;;;;0.30;0.30;;;;;;;;;;4440482;32;20088;-56
2023/11/26 02:51:30;;;;;;;0.35;0.35;;;;;;;;;;4438864;32;20090;-60
2023/11/26 02:53:56;;;;;;;0.60;0.60;;;;;;;;;;4437816;32;20556;-57
2023/11/26 02:56:22;;;;;;;0.30;0.30;;;;;;;;;;4439155;32;20092;-59
2023/11/26 02:58:49;;;;;;;0.30;0.30;;;;;;;;;;4440763;32;20076;-60
2023/11/26 03:01:17;;;;;;;0.32;0.32;;;;;;;;;;4442370;32;20123;-60
2023/11/26 03:03:45;;;;;;;0.40;0.40;;;;;;;;;;4436367;32;20085;-58
2023/11/26 03:06:11;;;;;;;0.32;0.32;;;;;;;;;;4438908;32;20572;-56
2023/11/26 03:08:38;;;;;;;0.40;0.40;;;;;;;;;;4441227;32;20434;-57
2023/11/26 03:13:11;;;;;;;0.40;0.40;;;;;;;;;;4439618;32;20069;-58
2023/11/26 03:13:51;;;;;;;0.40;0.40;;;;;;;;;;4427496;32;20077;-57
2023/11/26 03:16:16;;;;;;;0.40;0.40;;;;;;;;;;4439391;32;20073;-59
2023/11/26 03:18:42;;;;;;;0.40;0.40;;;;;;;;;;4438872;32;20115;-58
2023/11/26 03:21:15;;;;;;;0.30;0.30;;;;;;;;;;4434298;32;20464;-53
2023/11/26 03:23:41;;;;;;;0.30;0.30;;;;;;;;;;4438457;32;20065;-60
2023/11/26 03:26:07;;;;;;;0.70;0.70;;;;;;;;;;4434336;32;20478;-58
2023/11/26 03:28:34;;;;;;;0.32;0.32;;;;;;;;;;4438136;32;20069;-52
2023/11/26 03:31:00;;;;;;;0.40;0.40;;;;;;;;;;4433143;32;20068;-57
2023/11/26 03:33:27;;;;;;;0.30;0.30;;;;;;;;;;4435304;32;20132;-57
2023/11/26 03:35:53;;;;;;;0.35;0.35;;;;;;;;;;4439860;32;20491;-52
2023/11/26 03:38:19;;;;;;;0.30;0.30;;;;;;;;;;4423920;32;20103;-57
2023/11/26 03:40:45;;;;;;;0.30;0.30;;;;;;;;;;4440981;32;20114;-58
2023/11/26 03:43:11;;;;;;;0.30;0.30;;;;;;;;;;4438249;32;20130;-57
2023/11/26 03:45:37;;;;;;;0.30;0.30;;;;;;;;;;4435021;32;20072;-55
2023/11/26 03:48:03;;;;;;;0.30;0.30;;;;;;;;;;4439398;32;20441;-56
2023/11/26 03:50:29;;;;;;;0.30;0.30;;;;;;;;;;4435112;32;20070;-60
2023/11/26 03:52:55;;;;;;;0.30;0.30;;;;;;;;;;4424824;32;20069;-57
2023/11/26 03:55:22;;;;;;;0.65;0.52;;;;;;;;;;4439571;32;20065;-59
2023/11/26 03:57:47;;;;;;;0.68;0.68;;;;;;;;;;4443110;32;20495;-58
2023/11/26 04:00:14;;;;;;;0.30;0.30;;;;;;;;;;4436754;32;20142;-55
2023/11/26 04:02:40;;;;;;;0.50;0.50;;;;;;;;;;4440251;32;20524;-56
2023/11/26 04:05:07;;;;;;;0.40;0.40;;;;;;;;;;4439417;32;20093;-60
2023/11/26 04:07:33;;;;;;;0.43;0.43;;;;;;;;;;4437794;32;20069;-58
2023/11/26 04:09:59;;;;;;;1.85;0.75;;;;;;;;;;4425061;32;20073;-58
2023/11/26 04:12:25;;;;;;;0.40;0.40;;;;;;;;;;4436168;32;20142;-54
2023/11/26 04:14:54;;;;;;;0.30;0.30;;;;;;;;;;4424359;32;20472;-60
2023/11/26 04:17:21;;;;;;;0.40;0.40;;;;;;;;;;4437226;32;20086;-59
2023/11/26 04:19:47;;;;;;;1.65;0.77;;;;;;;;;;4419377;32;20167;-60
2023/11/26 04:22:13;;;;;;;0.30;0.30;;;;;;;;;;4440217;32;20074;-58
2023/11/26 04:24:41;;;;;;;0.30;0.30;;;;;;;;;;4442420;32;20053;-57
2023/11/26 04:27:07;;;;;;;0.30;0.30;;;;;;;;;;4439710;32;20112;-56
2023/11/26 04:29:32;;;;;;;0.43;0.40;;;;;;;;;;4435372;32;20132;-57
2023/11/26 04:31:58;;;;;;;0.30;0.30;;;;;;;;;;4434968;32;20438;-59
2023/11/26 04:34:24;;;;;;;0.30;0.30;;;;;;;;;;4433957;32;20078;-56
2023/11/26 04:36:50;;;;;;;0.50;0.50;;;;;;;;;;4436505;32;20120;-57
2023/11/26 04:39:16;;;;;;;0.30;0.30;;;;;;;;;;4439027;32;20078;-60
2023/11/26 04:41:42;;;;;;;0.37;0.37;;;;;;;;;;4437104;32;20123;-59
2023/11/26 04:44:08;;;;;;;0.30;0.30;;;;;;;;;;4437087;32;20068;-58
2023/11/26 04:46:34;;;;;;;0.30;0.30;;;;;;;;;;4437786;32;20086;-58
2023/11/26 04:49:00;;;;;;;0.30;0.30;;;;;;;;;;4439121;32;21123;-58
2023/11/26 04:51:27;;;;;;;0.30;0.30;;;;;;;;;;4441176;32;20101;-57
2023/11/26 04:53:53;;;;;;;0.30;0.30;;;;;;;;;;4440323;32;20524;-59
2023/11/26 04:56:20;;;;;;;0.35;0.35;;;;;;;;;;4439089;32;20127;-59
2023/11/26 04:58:46;;;;;;;0.40;0.40;;;;;;;;;;4437639;32;20097;-57
2023/11/26 05:01:15;;;;;;;0.30;0.30;;;;;;;;;;4435486;32;21776;-59
2023/11/26 05:03:42;;;;;;;0.40;0.40;;;;;;;;;;4437526;32;20065;-56
2023/11/26 05:06:08;;;;;;;0.37;0.37;;;;;;;;;;4424389;32;20068;-58
2023/11/26 05:08:34;;;;;;;0.30;0.30;;;;;;;;;;4440229;32;20060;-59
2023/11/26 05:11:01;;;;;;;0.80;0.77;;;;;;;;;;4435448;32;20187;-61
2023/11/26 05:13:28;;;;;;;0.30;0.30;;;;;;;;;;4438219;32;20068;-57
2023/11/26 05:15:54;;;;;;;0.30;0.30;;;;;;;;;;4434153;32;20093;-59
2023/11/26 05:18:20;;;;;;;0.30;0.30;;;;;;;;;;4437724;32;20066;-58
2023/11/26 05:20:48;;;;;;;0.40;0.40;;;;;;;;;;4440136;32;20081;-59
2023/11/26 05:23:14;;;;;;;0.45;0.45;;;;;;;;;;4432568;32;20538;-56
2023/11/26 05:25:40;;;;;;;0.40;0.40;;;;;;;;;;4437776;32;20121;-59
2023/11/26 05:28:06;;;;;;;0.30;0.30;;;;;;;;;;4424409;32;20527;-59
2023/11/26 05:30:32;;;;;;;0.30;0.30;;;;;;;;;;4436812;32;20065;-57
2023/11/26 05:32:58;;;;;;;0.30;0.30;;;;;;;;;;4433896;32;20548;-59
2023/11/26 05:35:27;;;;;;;0.30;0.30;;;;;;;;;;4434684;32;20072;-61
2023/11/26 05:37:53;;;;;;;0.55;0.55;;;;;;;;;;4434069;32;20077;-60
2023/11/26 05:40:20;;;;;;;0.30;0.30;;;;;;;;;;4437365;32;20065;-59
2023/11/26 05:42:46;;;;;;;0.30;0.30;;;;;;;;;;4439254;32;20098;-59
2023/11/26 05:45:12;;;;;;;0.30;0.30;;;;;;;;;;4439242;32;20512;-60
2023/11/26 05:47:38;;;;;;;0.20;0.20;;;;;;;;;;4436055;32;20073;-59
2023/11/26 05:50:04;;;;;;;0.32;0.32;;;;;;;;;;4442131;32;20073;-58
2023/11/26 05:52:30;;;;;;;0.30;0.30;;;;;;;;;;4441192;32;20056;-59
2023/11/26 05:54:56;;;;;;;0.30;0.30;;;;;;;;;;4426970;32;20065;-59
2023/11/26 05:57:23;;;;;;;0.30;0.30;;;;;;;;;;4441308;32;20065;-59
2023/11/26 05:59:49;;;;;;;0.30;0.30;;;;;;;;;;4435512;32;20420;-59
2023/11/26 06:02:15;;;;;;;0.30;0.30;;;;;;;;;;4421222;32;20069;-60
2023/11/26 06:04:41;;;;;;;0.40;0.40;;;;;;;;;;4443084;32;20532;-57
2023/11/26 06:07:08;;;;;;;0.30;0.30;;;;;;;;;;4441748;32;20507;-59
2023/11/26 06:09:34;;;;;;;0.30;0.30;;;;;;;;;;4439970;32;20089;-60
2023/11/26 06:12:00;;;;;;;0.40;0.40;;;;;;;;;;4437269;32;20384;-60
2023/11/26 06:14:26;;;;;;;0.30;0.30;;;;;;;;;;4438250;32;20064;-58
2023/11/26 06:16:52;;;;;;;0.30;0.30;;;;;;;;;;4441181;32;20296;-58
2023/11/26 06:19:18;;;;;;;0.20;0.20;;;;;;;;;;4440808;32;20069;-57
2023/11/26 06:21:44;;;;;;;0.30;0.30;;;;;;;;;;4441112;32;20071;-60
2023/11/26 06:24:10;;;;;;;3.22;0.88;;;;;;;;;;4438204;32;20064;-58
2023/11/26 06:26:37;;;;;;;0.52;0.52;;;;;;;;;;4436186;32;20065;-59
2023/11/26 06:29:04;;;;;;;0.30;0.30;;;;;;;;;;4438265;32;20073;-60
2023/11/26 06:31:31;;;;;;;0.55;0.55;;;;;;;;;;4436041;32;20094;-57
2023/11/26 06:33:57;;;;;;;0.30;0.30;;;;;;;;;;4436622;32;20146;-59
2023/11/26 06:36:24;;;;;;;0.30;0.30;;;;;;;;;;4435067;32;20167;-59
2023/11/26 06:38:51;;;;;;;0.40;0.40;;;;;;;;;;4419153;32;20061;-62
2023/11/26 06:41:23;;;;;;;1.75;1.25;;;;;;;;;;4424336;32;20085;-62
2023/11/26 06:43:49;;;;;;;0.30;0.30;;;;;;;;;;4441040;32;20482;-60
2023/11/26 06:46:16;;;;;;;0.62;0.62;;;;;;;;;;4439445;32;20087;-61
2023/11/26 06:48:43;;;;;;;0.30;0.30;;;;;;;;;;4417734;32;21134;-60
2023/11/26 06:51:10;;;;;;;0.50;0.50;;;;;;;;;;4433573;32;20070;-62
2023/11/26 06:53:36;;;;;;;0.30;0.30;;;;;;;;;;4437307;32;20068;-61
2023/11/26 06:56:02;;;;;;;0.30;0.30;;;;;;;;;;4438745;32;20550;-61
2023/11/26 06:58:27;;;;;;;0.30;0.30;;;;;;;;;;4438474;32;20085;-60
2023/11/26 07:00:53;;;;;;;0.40;0.40;;;;;;;;;;4430812;32;20497;-62
2023/11/26 07:03:19;;;;;;;0.40;0.40;;;;;;;;;;4432874;32;20061;-61
2023/11/26 07:05:45;;;;;;;0.32;0.32;;;;;;;;;;4439467;32;20434;-62
2023/11/26 07:08:11;;;;;;;0.47;0.47;;;;;;;;;;4435891;32;20451;-61
2023/11/26 07:10:37;;;;;;;0.30;0.30;;;;;;;;;;4438794;32;20073;-59
2023/11/26 07:13:05;;;;;;;0.30;0.30;;;;;;;;;;4435733;32;20119;-61
2023/11/26 07:15:31;;;;;;;0.30;0.30;;;;;;;;;;4441370;32;20078;-62
2023/11/26 07:17:58;;;;;;;0.30;0.30;;;;;;;;;;4440350;32;20097;-61
2023/11/26 07:20:24;;;;;;;0.35;0.35;;;;;;;;;;4437826;32;20082;-59
2023/11/26 07:22:51;;;;;;;0.30;0.30;;;;;;;;;;4434764;32;20080;-61
2023/11/26 07:25:19;;;;;;;0.30;0.30;;;;;;;;;;4424140;32;20061;-61
2023/11/26 07:27:44;;;;;;;0.35;0.35;;;;;;;;;;4436750;32;20073;-61
2023/11/26 07:30:11;;;;;;;0.40;0.40;;;;;;;;;;4438752;32;20123;-59
2023/11/26 07:32:37;;;;;;;0.60;0.60;;;;;;;;;;4421534;32;20524;-60
2023/11/26 07:35:04;;;;;;;1.85;0.85;;;;;;;;;;4436128;32;20061;-62
2023/11/26 07:37:30;;;;;;;0.30;0.30;;;;;;;;;;4437324;32;20501;-61
2023/11/26 07:39:56;;;;;;;0.60;0.60;;;;;;;;;;4436388;32;20068;-59
2023/11/26 07:42:22;;;;;;;0.40;0.40;;;;;;;;;;4434144;32;20402;-62
2023/11/26 07:44:50;;;;;;;0.30;0.30;;;;;;;;;;4438301;32;20514;-63
2023/11/26 07:47:16;;;;;;;0.45;0.45;;;;;;;;;;4438803;32;20070;-61
2023/11/26 07:49:42;;;;;;;0.32;0.32;;;;;;;;;;4439668;32;20528;-61
2023/11/26 07:52:08;;;;;;;0.30;0.30;;;;;;;;;;4435864;32;20068;-62
2023/11/26 07:54:34;;;;;;;0.30;0.30;;;;;;;;;;4434639;32;20117;-58
2023/11/26 07:57:00;;;;;;;0.30;0.30;;;;;;;;;;4441654;32;20130;-58
2023/11/26 07:59:26;;;;;;;0.30;0.30;;;;;;;;;;4426193;32;20081;-59
2023/11/26 08:01:52;;;;;;;0.40;0.40;;;;;;;;;;4440285;32;20073;-58
2023/11/26 08:04:18;;;;;;;0.30;0.30;;;;;;;;;;4438545;32;20069;-60
2023/11/26 08:06:48;;;;;;;0.47;0.47;;;;;;;;;;4438565;32;20434;-61
2023/11/26 08:09:14;;;;;;;0.30;0.30;;;;;;;;;;4440280;32;20073;-61
2023/11/26 08:11:44;;;;;;;0.30;0.30;;;;;;;;;;4438778;32;20123;-59
2023/11/26 08:14:12;;;;;;;0.30;0.30;;;;;;;;;;4425599;32;20053;-62
2023/11/26 08:16:39;;;;;;;0.30;0.30;;;;;;;;;;4440700;32;20540;-61
2023/11/26 08:19:11;;;;;;;0.32;0.32;;;;;;;;;;4444158;32;20061;-62
2023/11/26 08:21:37;;;;;;;0.45;0.45;;;;;;;;;;4435233;32;20069;-62
2023/11/26 08:24:07;;;;;;;0.40;0.40;;;;;;;;;;4438576;32;20056;-59
2023/11/26 08:26:35;;;;;;;0.30;0.30;;;;;;;;;;4433164;32;20068;-61
2023/11/26 08:29:01;;;;;;;0.40;0.40;;;;;;;;;;4441396;32;20086;-61
2023/11/26 08:31:28;;;;;;;0.30;0.30;;;;;;;;;;4437569;32;20077;-62
2023/11/26 08:33:55;;;;;;;5.97;1.85;;;;;;;;;;4439322;32;20069;-60
2023/11/26 08:36:21;;;;;;;0.45;0.45;;;;;;;;;;4436841;32;20173;-61
2023/11/26 08:38:48;;;;;;;0.30;0.30;;;;;;;;;;4439529;32;20135;-58
2023/11/26 08:41:15;;;;;;;0.30;0.30;;;;;;;;;;4440238;32;20132;-61
2023/11/26 08:43:43;;;;;;;0.30;0.30;;;;;;;;;;4436521;32;20510;-60
2023/11/26 08:46:12;;;;;;;1.35;1.05;;;;;;;;;;4434948;32;20465;-61
2023/11/26 08:48:37;;;;;;;0.40;0.40;;;;;;;;;;4440822;32;20058;-61
2023/11/26 08:51:04;;;;;;;0.40;0.40;;;;;;;;;;4434984;32;20124;-60
2023/11/26 08:53:31;;;;;;;0.30;0.30;;;;;;;;;;4437082;32;20070;-61
2023/11/26 08:55:57;;;;;;;0.40;0.40;;;;;;;;;;4418749;32;20777;-61
2023/11/26 08:58:23;;;;;;;0.30;0.30;;;;;;;;;;4435656;32;20087;-60
2023/11/26 09:00:49;;;;;;;0.30;0.30;;;;;;;;;;4437409;32;20498;-57
2023/11/26 09:03:15;;;;;;;0.30;0.30;;;;;;;;;;4434607;32;21153;-60
2023/11/26 09:05:41;;;;;;;0.30;0.30;;;;;;;;;;4437108;32;20072;-60
2023/11/26 09:08:07;;;;;;;0.30;0.30;;;;;;;;;;4438425;32;20085;-62
2023/11/26 09:10:34;;;;;;;0.30;0.30;;;;;;;;;;4435677;32;20081;-61
2023/11/26 09:13:00;;;;;;;0.40;0.40;;;;;;;;;;4438302;32;20076;-58
2023/11/26 09:15:28;;;;;;;0.30;0.30;;;;;;;;;;4437651;32;20076;-60
2023/11/26 09:17:54;;;;;;;0.20;0.20;;;;;;;;;;4434998;32;20074;-61
2023/11/26 09:20:20;;;;;;;0.77;0.77;;;;;;;;;;4440047;32;20072;-61
2023/11/26 09:22:48;;;;;;;0.30;0.30;;;;;;;;;;4436790;32;20068;-61
2023/11/26 09:25:14;;;;;;;0.30;0.30;;;;;;;;;;4438386;32;20084;-60
2023/11/26 09:27:41;;;;;;;0.40;0.40;;;;;;;;;;4437192;32;20433;-59
2023/11/26 09:30:08;;;;;;;0.40;0.40;;;;;;;;;;4435776;32;20086;-60
2023/11/26 09:32:34;;;;;;;1.45;0.62;;;;;;;;;;4431197;32;20485;-61
2023/11/26 09:35:01;;;;;;;0.43;0.43;;;;;;;;;;4437465;32;20111;-57
2023/11/26 09:37:26;;;;;;;0.25;0.25;;;;;;;;;;4437940;32;21236;-60
2023/11/26 09:39:52;;;;;;;0.30;0.30;;;;;;;;;;4434277;32;20077;-61
2023/11/26 09:42:22;;;;;;;0.30;0.30;;;;;;;;;;4438234;32;20081;-62
2023/11/26 09:44:48;;;;;;;0.30;0.30;;;;;;;;;;4432515;32;20068;-58
2023/11/26 09:47:15;;;;;;;0.30;0.30;;;;;;;;;;4420435;32;21139;-59
2023/11/26 09:49:41;;;;;;;0.30;0.30;;;;;;;;;;4435720;32;20132;-59
2023/11/26 09:52:08;;;;;;;0.30;0.30;;;;;;;;;;4419155;32;20143;-61
2023/11/26 09:54:34;;;;;;;0.30;0.30;;;;;;;;;;4437982;32;20072;-60
2023/11/26 09:57:01;;;;;;;0.30;0.30;;;;;;;;;;4439702;32;20125;-57
2023/11/26 09:59:28;;;;;;;0.30;0.30;;;;;;;;;;4437100;32;20909;-61
2023/11/26 10:01:54;;;;;;;0.20;0.20;;;;;;;;;;4436860;32;20053;-62
2023/11/26 10:04:21;;;;;;;0.82;0.82;;;;;;;;;;4437986;32;20119;-59
2023/11/26 10:06:51;;;;;;;0.30;0.30;;;;;;;;;;4435311;32;20080;-58
2023/11/26 10:09:17;;;;;;;0.30;0.30;;;;;;;;;;4435198;32;20073;-55
2023/11/26 10:11:43;;;;;;;0.30;0.30;;;;;;;;;;4419803;32;20525;-60
2023/11/26 10:14:18;;;;;;;0.32;0.32;;;;;;;;;;4416585;32;20674;-55
2023/11/26 10:16:44;;;;;;;2.05;0.77;;;;;;;;;;4418776;32;20488;-56
2023/11/26 10:19:26;;;;;;;0.20;0.20;;;;;;;;;;4422252;32;20060;-57
2023/11/26 10:21:54;;;;;;;0.60;0.60;;;;;;;;;;4423039;32;20080;-60
2023/11/26 10:24:21;;;;;;;0.40;0.40;;;;;;;;;;4436702;32;20073;-57
2023/11/26 10:26:50;;;;;;;0.30;0.30;;;;;;;;;;4436007;32;20076;-59
2023/11/26 10:29:18;;;;;;;0.20;0.20;;;;;;;;;;4418168;32;20457;-56
2023/11/26 10:32:01;;;;;;;0.35;0.35;;;;;;;;;;4434569;32;21786;-58
2023/11/26 10:34:29;;;;;;;0.30;0.30;;;;;;;;;;4416732;32;20128;-59
2023/11/26 10:36:55;;;;;;;0.30;0.30;;;;;;;;;;4437562;32;20064;-56
2023/11/26 10:39:21;;;;;;;2.37;1.33;;;;;;;;;;4436901;32;20132;-57
2023/11/26 10:41:49;;;;;;;0.30;0.30;;;;;;;;;;4441366;32;20162;-59
2023/11/26 10:44:16;;;;;;;0.30;0.30;;;;;;;;;;4442049;32;20073;-58
2023/11/26 10:46:44;;;;;;;0.40;0.40;;;;;;;;;;4438691;32;20458;-56
2023/11/26 10:49:30;;;;;;;0.30;0.30;;;;;;;;;;4438717;32;20085;-61
2023/11/26 10:52:03;;;;;;;0.40;0.40;;;;;;;;;;4426140;32;20083;-58
2023/11/26 10:54:33;;;;;;;0.30;0.30;;;;;;;;;;4440458;32;21307;-58
2023/11/26 10:57:08;;;;;;;0.40;0.40;;;;;;;;;;4438770;32;20061;-59
2023/11/26 10:59:37;;;;;;;0.30;0.30;;;;;;;;;;4438221;32;20228;-58
2023/11/26 11:02:03;;;;;;;0.40;0.40;;;;;;;;;;4440784;32;20061;-58
2023/11/26 11:04:30;;;;;;;0.30;0.30;;;;;;;;;;4435725;32;20042;-57
2023/11/26 11:06:57;;;;;;;0.52;0.52;;;;;;;;;;4419646;32;20069;-60
2023/11/26 11:09:27;;;;;;;0.30;0.30;;;;;;;;;;4437447;32;21420;-57
2023/11/26 11:11:58;;;;;;;0.30;0.30;;;;;;;;;;4441884;32;20565;-58
2023/11/26 11:14:25;;;;;;;0.30;0.30;;;;;;;;;;4421286;32;20040;-61
2023/11/26 11:16:51;;;;;;;0.35;0.35;;;;;;;;;;4440563;32;20138;-58
2023/11/26 11:19:37;;;;;;;0.30;0.30;;;;;;;;;;4438913;32;20123;-62
2023/11/26 11:22:03;;;;;;;0.30;0.30;;;;;;;;;;4423443;32;20438;-59
2023/11/26 11:24:29;;;;;;;0.30;0.30;;;;;;;;;;4435312;32;20061;-59
2023/11/26 11:26:56;;;;;;;0.50;0.50;;;;;;;;;;4438876;32;20167;-59
2023/11/26 11:29:31;;;;;;;0.30;0.30;;;;;;;;;;4424023;32;20065;-59
2023/11/26 11:32:00;;;;;;;4.32;1.67;;;;;;;;;;4440982;32;20084;-57
2023/11/26 11:34:26;;;;;;;0.30;0.30;;;;;;;;;;4435133;32;20073;-60
2023/11/26 11:36:53;;;;;;;0.30;0.30;;;;;;;;;;4439697;32;20120;-57
2023/11/26 11:39:21;;;;;;;0.30;0.30;;;;;;;;;;4440900;32;20100;-60
2023/11/26 11:42:03;;;;;;;0.43;0.43;;;;;;;;;;4437336;32;20516;-57
2023/11/26 11:44:31;;;;;;;0.25;0.25;;;;;;;;;;4437344;32;20088;-56
2023/11/26 11:46:58;;;;;;;0.20;0.20;;;;;;;;;;4420606;32;20511;-57
2023/11/26 11:49:28;;;;;;;0.30;0.30;;;;;;;;;;4418807;32;86024;-58
2023/11/26 11:51:54;;;;;;;0.30;0.30;;;;;;;;;;4413277;32;20086;-58
2023/11/26 11:54:29;;;;;;;0.30;0.30;;;;;;;;;;4400436;32;20140;-58
2023/11/26 11:57:03;;;;;;;0.30;0.30;;;;;;;;;;4414098;32;20124;-58
2023/11/26 11:59:29;;;;;;;0.30;0.30;;;;;;;;;;4399454;32;20146;-59
2023/11/26 12:01:57;;;;;;;0.35;0.35;;;;;;;;;;4413743;32;20490;-55
2023/11/26 12:04:44;;;;;;;0.30;0.30;;;;;;;;;;4391052;32;20145;-58
2023/11/26 12:07:11;;;;;;;0.30;0.30;;;;;;;;;;4400283;32;20058;-59
2023/11/26 12:09:39;;;;;;;0.37;0.37;;;;;;;;;;4413555;32;20121;-58
2023/11/26 12:12:05;;;;;;;0.35;0.35;;;;;;;;;;4398899;32;20078;-59
2023/11/26 12:14:32;;;;;;;0.30;0.30;;;;;;;;;;4414155;32;20162;-58
2023/11/26 12:17:00;;;;;;;0.40;0.40;;;;;;;;;;4400201;32;20062;-59
2023/11/26 12:19:26;;;;;;;0.30;0.30;;;;;;;;;;4416794;32;20057;-60
2023/11/26 12:21:53;;;;;;;0.20;0.20;;;;;;;;;;4412655;32;20049;-59
2023/11/26 12:24:21;;;;;;;0.20;0.20;;;;;;;;;;4414430;32;20070;-61
2023/11/26 12:26:47;;;;;;;0.30;0.30;;;;;;;;;;4412083;32;21169;-58
2023/11/26 12:29:14;;;;;;;0.20;0.20;;;;;;;;;;4402641;32;20065;-60
2023/11/26 12:31:40;;;;;;;0.32;0.32;;;;;;;;;;4414212;32;20517;-60
2023/11/26 12:34:07;;;;;;;0.20;0.20;;;;;;;;;;4410503;32;20097;-59
2023/11/26 12:36:34;;;;;;;0.30;0.30;;;;;;;;;;4397074;32;20053;-60
2023/11/26 12:39:00;;;;;;;0.30;0.30;;;;;;;;;;4412730;32;20070;-59
2023/11/26 12:41:26;;;;;;;0.30;0.30;;;;;;;;;;4411692;32;20062;-59
2023/11/26 12:43:55;;;;;;;1.75;0.82;;;;;;;;;;4411150;32;20065;-60
2023/11/26 12:46:24;;;;;;;0.30;0.30;;;;;;;;;;4411872;32;20066;-60
2023/11/26 12:48:51;;;;;;;0.30;0.30;;;;;;;;;;4410926;32;20106;-58
2023/11/26 12:51:17;;;;;;;0.30;0.30;;;;;;;;;;4425649;32;20053;-58
2023/11/26 12:53:43;;;;;;;0.30;0.30;;;;;;;;;;4426456;32;20049;-60
2023/11/26 12:56:09;;;;;;;0.30;0.30;;;;;;;;;;4426602;32;20088;-60
2023/11/26 12:58:35;;;;;;;0.20;0.20;;;;;;;;;;4426672;32;20062;-61
2023/11/26 13:01:03;;;;;;;0.30;0.30;;;;;;;;;;4425494;32;20546;-60
2023/11/26 13:03:29;;;;;;;0.32;0.32;;;;;;;;;;4426400;32;20076;-60
2023/11/26 13:06:05;;;;;;;0.52;0.52;;;;;;;;;;4421505;32;20073;-59
2023/11/26 13:08:31;;;;;;;0.30;0.30;;;;;;;;;;4421984;32;20083;-60
2023/11/26 13:10:57;;;;;;;0.30;0.30;;;;;;;;;;4429120;32;20431;-60
2023/11/26 13:13:26;;;;;;;0.30;0.30;;;;;;;;;;4414777;32;20136;-60
2023/11/26 13:15:53;;;;;;;1.02;0.52;;;;;;;;;;4427184;32;20410;-60
2023/11/26 13:18:19;;;;;;;0.30;0.30;;;;;;;;;;4415873;32;20120;-60
2023/11/26 13:20:47;;;;;;;0.30;0.30;;;;;;;;;;4414295;32;20140;-60
2023/11/26 13:23:13;;;;;;;0.40;0.40;;;;;;;;;;4425907;32;20084;-58
2023/11/26 13:25:38;;;;;;;0.30;0.30;;;;;;;;;;4426844;32;20061;-60
2023/11/26 13:28:05;;;;;;;0.40;0.40;;;;;;;;;;4427991;32;20171;-60
2023/11/26 13:30:31;;;;;;;0.30;0.30;;;;;;;;;;4426694;32;20058;-61
2023/11/26 13:32:57;;;;;;;0.30;0.30;;;;;;;;;;4426845;32;20081;-59
2023/11/26 13:35:23;;;;;;;1.40;1.30;;;;;;;;;;4423525;32;20124;-59
2023/11/26 13:37:49;;;;;;;0.30;0.30;;;;;;;;;;4424700;32;20153;-60
2023/11/26 13:40:15;;;;;;;0.30;0.30;;;;;;;;;;4419046;32;20074;-59
2023/11/26 13:42:43;;;;;;;0.40;0.40;;;;;;;;;;4427395;32;20080;-60
2023/11/26 13:45:09;;;;;;;0.30;0.30;;;;;;;;;;4414282;32;20073;-61
2023/11/26 13:47:35;;;;;;;0.30;0.30;;;;;;;;;;4426881;32;20113;-60
2023/11/26 13:50:00;;;;;;;0.30;0.30;;;;;;;;;;4428668;32;20077;-60
2023/11/26 13:52:26;;;;;;;0.30;0.30;;;;;;;;;;4425948;32;20065;-60
2023/11/26 13:54:53;;;;;;;0.30;0.30;;;;;;;;;;4429930;32;21085;-60
2023/11/26 13:57:19;;;;;;;0.30;0.30;;;;;;;;;;4426340;32;20073;-60
2023/11/26 13:59:46;;;;;;;0.30;0.30;;;;;;;;;;4426525;32;20082;-59
2023/11/26 14:02:13;;;;;;;0.40;0.40;;;;;;;;;;4428078;32;20089;-61
2023/11/26 14:04:39;;;;;;;0.47;0.47;;;;;;;;;;4426493;32;20513;-61
2023/11/26 14:07:05;;;;;;;0.30;0.30;;;;;;;;;;4427291;32;20167;-57
2023/11/26 14:09:31;;;;;;;0.30;0.30;;;;;;;;;;4428818;32;20085;-58
2023/11/26 14:11:57;;;;;;;0.30;0.30;;;;;;;;;;4430798;32;20069;-59
2023/11/26 14:14:23;;;;;;;0.40;0.40;;;;;;;;;;4432768;32;20057;-59
2023/11/26 14:16:49;;;;;;;0.37;0.37;;;;;;;;;;4430521;32;20390;-56
2023/11/26 14:19:16;;;;;;;0.70;0.70;;;;;;;;;;4428384;32;20076;-60
2023/11/26 14:21:42;;;;;;;0.43;0.43;;;;;;;;;;4431203;32;20077;-58
2023/11/26 14:24:08;;;;;;;0.68;0.68;;;;;;;;;;4426508;32;20119;-59
2023/11/26 14:26:36;;;;;;;0.22;0.22;;;;;;;;;;4430820;32;20946;-59
2023/11/26 14:29:02;;;;;;;0.30;0.30;;;;;;;;;;4430024;32;20074;-57
2023/11/26 14:31:28;;;;;;;0.30;0.30;;;;;;;;;;4428887;32;20073;-58
2023/11/26 14:33:54;;;;;;;0.40;0.40;;;;;;;;;;4428621;32;20065;-59
2023/11/26 14:36:21;;;;;;;0.40;0.40;;;;;;;;;;4430222;32;20073;-60
2023/11/26 14:38:47;;;;;;;0.40;0.40;;;;;;;;;;4427489;32;20097;-59
2023/11/26 14:41:13;;;;;;;0.30;0.30;;;;;;;;;;4425125;32;20072;-58
2023/11/26 14:43:39;;;;;;;0.47;0.47;;;;;;;;;;4428295;32;20081;-57